Time;durP1;ratioP1;P1;durP2;ratioP2;P2;SDS_P1;SDS_P2;PMS_P1;PMS_P2;Temp;Humidity;BMP_temperature;BMP_pressure;BME280_temperature;BME280_humidity;BME280_pressure;Samples;Min_cycle;Max_cycle;Signal;HPM_P1;HPM_P2
2022/01/12 00:02:05;;;;;;;58.00;24.92;;;;;;;;;;5045078;28;20405;-65
2022/01/12 00:04:31;;;;;;;61.88;26.05;;;;;;;;;;5052465;28;20033;-65
2022/01/12 00:06:57;;;;;;;53.63;24.80;;;;;;;;;;5051103;28;20095;-65
2022/01/12 00:09:23;;;;;;;64.90;25.23;;;;;;;;;;5051312;28;20041;-65
2022/01/12 00:11:49;;;;;;;59.47;25.65;;;;;;;;;;5051845;28;20048;-65
2022/01/12 00:14:15;;;;;;;66.10;26.35;;;;;;;;;;5050058;28;20032;-65
2022/01/12 00:16:46;;;;;;;62.65;25.88;;;;;;;;;;5053400;28;20048;-65
2022/01/12 00:19:12;;;;;;;59.42;25.55;;;;;;;;;;5051513;28;20044;-65
2022/01/12 00:21:38;;;;;;;67.00;26.65;;;;;;;;;;5050175;28;20037;-65
2022/01/12 00:24:05;;;;;;;59.63;25.75;;;;;;;;;;5047731;28;20037;-65
2022/01/12 00:34:26;;;;;;;61.20;26.27;;;;;;;;;;5046132;28;20089;-65
2022/01/12 00:36:52;;;;;;;65.03;26.73;;;;;;;;;;5051430;28;20043;-65
2022/01/12 00:39:18;;;;;;;57.42;25.35;;;;;;;;;;5049942;28;20037;-65
2022/01/12 00:41:44;;;;;;;58.42;26.05;;;;;;;;;;5050245;28;21999;-65
2022/01/12 00:44:21;;;;;;;70.38;26.95;;;;;;;;;;5050681;28;20029;-65
2022/01/12 00:46:47;;;;;;;64.57;26.17;;;;;;;;;;5051442;28;20048;-65
2022/01/12 00:49:13;;;;;;;56.80;23.63;;;;;;;;;;5052473;28;20064;-65
2022/01/12 00:51:39;;;;;;;58.45;25.42;;;;;;;;;;5051387;28;20099;-65
2022/01/12 00:54:06;;;;;;;59.60;24.80;;;;;;;;;;5050537;28;20067;-65
2022/01/12 00:56:32;;;;;;;55.53;24.83;;;;;;;;;;5051200;28;20103;-65
2022/01/12 00:58:58;;;;;;;57.08;25.92;;;;;;;;;;5050618;28;20094;-65
2022/01/12 01:01:25;;;;;;;63.65;26.48;;;;;;;;;;5050735;28;20037;-65
2022/01/12 01:03:52;;;;;;;60.97;26.13;;;;;;;;;;5050922;28;20049;-65
2022/01/12 01:06:18;;;;;;;56.22;25.15;;;;;;;;;;5066109;28;20115;-65
2022/01/12 01:08:44;;;;;;;53.88;25.35;;;;;;;;;;5063684;28;20051;-65
2022/01/12 01:11:12;;;;;;;55.22;25.30;;;;;;;;;;5054811;28;20041;-65
2022/01/12 01:13:46;;;;;;;58.88;26.27;;;;;;;;;;5054563;28;20057;-65
2022/01/12 01:16:22;;;;;;;65.30;26.23;;;;;;;;;;5054688;28;20105;-66
2022/01/12 01:27:02;;;;;;;54.97;25.15;;;;;;;;;;5054850;28;20406;-65
2022/01/12 01:29:28;;;;;;;54.90;24.77;;;;;;;;;;5054001;28;20047;-65
2022/01/12 01:31:54;;;;;;;51.15;25.70;;;;;;;;;;5054012;28;20080;-65
2022/01/12 01:34:20;;;;;;;60.47;26.45;;;;;;;;;;5054208;28;20068;-65
2022/01/12 01:36:48;;;;;;;57.05;25.75;;;;;;;;;;5054654;28;20044;-65
2022/01/12 01:39:16;;;;;;;50.13;24.60;;;;;;;;;;5057791;28;20036;-65
2022/01/12 01:41:47;;;;;;;57.03;24.85;;;;;;;;;;5048824;28;20050;-65
2022/01/12 01:54:53;;;;;;;58.35;26.08;;;;;;;;;;5053601;28;20052;-65
2022/01/12 01:57:20;;;;;;;62.38;25.58;;;;;;;;;;5053943;28;20128;-65
2022/01/12 01:59:46;;;;;;;55.95;24.48;;;;;;;;;;5053824;28;20040;-65
2022/01/12 02:02:12;;;;;;;57.75;26.67;;;;;;;;;;5036276;28;20052;-65
2022/01/12 02:04:38;;;;;;;68.40;26.92;;;;;;;;;;5053154;28;20041;-65
2022/01/12 02:07:05;;;;;;;67.95;27.15;;;;;;;;;;5053920;28;20483;-65
2022/01/12 02:09:34;;;;;;;59.67;25.17;;;;;;;;;;5036109;28;20494;-65
2022/01/12 02:12:00;;;;;;;71.80;27.02;;;;;;;;;;5052560;28;20056;-65
2022/01/12 02:14:28;;;;;;;66.45;29.02;;;;;;;;;;5053817;28;20120;-65
2022/01/12 02:17:00;;;;;;;63.30;26.58;;;;;;;;;;5051705;28;20072;-65
2022/01/12 02:35:56;;;;;;;90.32;29.75;;;;;;;;;;5052855;28;20052;-65
2022/01/12 02:41:07;;;;;;;81.47;27.92;;;;;;;;;;5061292;28;20056;-65
2022/01/12 02:54:18;;;;;;;105.88;31.88;;;;;;;;;;5019752;28;20461;-65
2022/01/12 02:56:44;;;;;;;93.25;30.80;;;;;;;;;;5050718;28;20045;-65
2022/01/12 02:59:10;;;;;;;76.45;29.90;;;;;;;;;;5053147;28;20047;-65
2022/01/12 03:04:12;;;;;;;105.97;32.65;;;;;;;;;;5052248;28;20041;-65
2022/01/12 03:06:40;;;;;;;99.72;31.92;;;;;;;;;;5051780;28;20536;-65
2022/01/12 03:09:07;;;;;;;99.40;33.22;;;;;;;;;;5052945;28;20414;-65
2022/01/12 03:11:35;;;;;;;113.10;31.88;;;;;;;;;;5052730;28;20040;-65
2022/01/12 03:14:01;;;;;;;173.40;37.13;;;;;;;;;;5051649;28;20051;-66
2022/01/12 03:16:28;;;;;;;97.65;31.83;;;;;;;;;;5051891;28;20537;-65
2022/01/12 03:18:55;;;;;;;96.53;31.17;;;;;;;;;;5035968;28;20109;-65
2022/01/12 03:21:23;;;;;;;128.85;34.25;;;;;;;;;;5034770;28;20045;-65
2022/01/12 03:23:50;;;;;;;134.32;35.47;;;;;;;;;;5052102;28;20041;-65
2022/01/12 03:26:16;;;;;;;108.10;33.70;;;;;;;;;;5051814;28;20081;-65
2022/01/12 03:28:43;;;;;;;94.88;31.80;;;;;;;;;;5052244;28;20402;-65
2022/01/12 03:38:53;;;;;;;111.13;32.75;;;;;;;;;;5037507;28;20044;-65
2022/01/12 03:41:20;;;;;;;116.20;34.70;;;;;;;;;;5034290;28;20205;-65
2022/01/12 03:43:46;;;;;;;165.70;38.33;;;;;;;;;;5051859;28;20075;-65
2022/01/12 03:46:12;;;;;;;137.18;35.50;;;;;;;;;;5051701;28;20064;-65
2022/01/12 03:48:38;;;;;;;114.47;34.10;;;;;;;;;;5051770;28;20044;-66
2022/01/12 03:51:04;;;;;;;129.88;34.58;;;;;;;;;;5034204;28;20394;-65
2022/01/12 03:53:30;;;;;;;135.23;35.83;;;;;;;;;;5033781;28;20174;-65
2022/01/12 03:55:56;;;;;;;110.32;35.63;;;;;;;;;;5051294;28;20068;-65
2022/01/12 03:58:22;;;;;;;138.52;36.75;;;;;;;;;;5051573;28;20506;-65
2022/01/12 04:00:48;;;;;;;138.57;36.10;;;;;;;;;;5033491;28;20052;-65
2022/01/12 04:03:15;;;;;;;148.55;36.83;;;;;;;;;;5051478;28;20099;-65
2022/01/12 04:08:26;;;;;;;106.03;33.85;;;;;;;;;;5051155;28;20513;-65
2022/01/12 04:10:57;;;;;;;127.18;35.45;;;;;;;;;;5045472;28;20040;-66
2022/01/12 04:13:25;;;;;;;139.90;37.33;;;;;;;;;;5051343;28;20048;-66
2022/01/12 04:15:54;;;;;;;144.05;36.38;;;;;;;;;;5050076;28;20076;-67
2022/01/12 04:18:20;;;;;;;135.85;34.17;;;;;;;;;;5047613;28;20554;-67
2022/01/12 04:20:47;;;;;;;153.52;37.28;;;;;;;;;;5046868;28;20126;-67
2022/01/12 04:23:17;;;;;;;150.45;37.67;;;;;;;;;;5029820;28;20045;-67
2022/01/12 04:25:44;;;;;;;137.25;36.40;;;;;;;;;;5036127;28;20044;-67
2022/01/12 04:28:10;;;;;;;143.60;37.35;;;;;;;;;;5052478;28;20060;-67
2022/01/12 04:30:36;;;;;;;182.23;39.00;;;;;;;;;;5069714;28;20037;-66
2022/01/12 04:33:02;;;;;;;146.60;36.95;;;;;;;;;;5045032;28;20126;-67
2022/01/12 04:35:33;;;;;;;121.70;36.58;;;;;;;;;;5051536;28;20041;-67
2022/01/12 04:37:59;;;;;;;170.95;39.30;;;;;;;;;;5057512;28;20040;-67
2022/01/12 04:40:25;;;;;;;114.68;34.92;;;;;;;;;;5052222;28;20048;-67
2022/01/12 04:42:53;;;;;;;113.30;36.28;;;;;;;;;;5048527;28;20406;-67
2022/01/12 04:50:21;;;;;;;144.52;36.40;;;;;;;;;;5054258;28;20068;-67
2022/01/12 04:52:47;;;;;;;117.90;34.33;;;;;;;;;;5053477;28;20047;-67
2022/01/12 04:55:13;;;;;;;110.63;33.33;;;;;;;;;;5052556;28;20041;-67
2022/01/12 04:57:39;;;;;;;146.77;36.28;;;;;;;;;;5053679;28;20037;-67
2022/01/12 05:00:13;;;;;;;120.35;33.85;;;;;;;;;;5052849;28;20351;-67
2022/01/12 05:08:19;;;;;;;114.80;33.30;;;;;;;;;;5025481;28;20102;-67
2022/01/12 05:13:30;;;;;;;118.95;32.20;;;;;;;;;;5054841;28;20052;-66
2022/01/12 05:15:57;;;;;;;109.07;32.05;;;;;;;;;;5078302;22;20033;-65
2022/01/12 05:18:23;;;;;;;117.50;34.65;;;;;;;;;;5074544;28;20137;-65
2022/01/12 05:20:49;;;;;;;115.90;33.88;;;;;;;;;;5074663;28;20477;-65
2022/01/12 05:23:15;;;;;;;111.43;34.20;;;;;;;;;;5074165;28;20045;-65
2022/01/12 05:25:41;;;;;;;116.93;32.97;;;;;;;;;;5073352;28;20040;-65
2022/01/12 05:28:07;;;;;;;105.03;31.85;;;;;;;;;;5074754;28;20037;-65
2022/01/12 05:30:33;;;;;;;111.65;33.30;;;;;;;;;;5073867;28;20037;-65
2022/01/12 05:33:00;;;;;;;100.03;31.25;;;;;;;;;;5072038;28;20456;-65
2022/01/12 05:35:31;;;;;;;101.43;31.75;;;;;;;;;;5073606;28;20040;-65
2022/01/12 05:37:58;;;;;;;108.55;31.15;;;;;;;;;;5072614;28;20566;-65
2022/01/12 05:40:24;;;;;;;84.65;28.70;;;;;;;;;;5072904;28;20102;-65
2022/01/12 05:42:51;;;;;;;90.75;29.67;;;;;;;;;;5073355;28;20044;-65
2022/01/12 05:45:19;;;;;;;77.90;28.15;;;;;;;;;;5074244;28;20412;-65
2022/01/12 05:50:15;;;;;;;76.22;25.48;;;;;;;;;;5073748;28;20044;-65
2022/01/12 05:52:41;;;;;;;77.05;26.60;;;;;;;;;;5073622;28;20072;-65
2022/01/12 05:55:08;;;;;;;79.68;28.40;;;;;;;;;;5072305;28;20063;-65
2022/01/12 05:57:34;;;;;;;77.63;25.90;;;;;;;;;;5074756;28;20044;-64
2022/01/12 06:00:01;;;;;;;84.20;28.35;;;;;;;;;;5074088;28;20562;-65
2022/01/12 06:02:27;;;;;;;76.82;25.90;;;;;;;;;;5072587;28;20064;-65
2022/01/12 06:04:53;;;;;;;78.25;28.10;;;;;;;;;;5077365;28;20043;-65
2022/01/12 06:07:19;;;;;;;77.47;26.98;;;;;;;;;;5071971;28;20044;-65
2022/01/12 06:09:45;;;;;;;82.03;27.50;;;;;;;;;;5073627;28;20044;-65
2022/01/12 06:12:13;;;;;;;125.07;30.00;;;;;;;;;;5073319;28;20075;-65
2022/01/12 06:14:39;;;;;;;73.05;25.58;;;;;;;;;;5073410;28;20563;-65
2022/01/12 06:17:05;;;;;;;89.60;26.20;;;;;;;;;;5075025;28;20067;-65
2022/01/12 06:19:31;;;;;;;82.15;25.95;;;;;;;;;;5077289;28;20111;-65
2022/01/12 06:21:57;;;;;;;86.68;28.60;;;;;;;;;;5071390;28;20504;-65
2022/01/12 06:24:23;;;;;;;84.90;28.75;;;;;;;;;;5073443;28;20045;-66
2022/01/12 06:26:49;;;;;;;104.45;30.45;;;;;;;;;;5073132;28;20047;-65
2022/01/12 06:31:46;;;;;;;83.55;28.30;;;;;;;;;;5072888;28;20486;-65
2022/01/12 06:34:12;;;;;;;91.40;29.83;;;;;;;;;;5071199;28;20039;-65
2022/01/12 06:36:39;;;;;;;86.18;29.45;;;;;;;;;;5072360;28;20036;-65
2022/01/12 06:39:10;;;;;;;82.55;28.27;;;;;;;;;;5066581;28;20041;-65
2022/01/12 06:41:39;;;;;;;94.93;29.88;;;;;;;;;;5069219;28;20036;-65
2022/01/12 06:44:06;;;;;;;90.75;29.33;;;;;;;;;;5071538;28;20121;-65
2022/01/12 06:46:34;;;;;;;89.50;28.73;;;;;;;;;;5071577;28;20040;-65
2022/01/12 06:49:00;;;;;;;94.20;29.77;;;;;;;;;;5073122;28;20048;-65
2022/01/12 06:51:26;;;;;;;90.82;26.73;;;;;;;;;;5071060;28;20105;-65
2022/01/12 06:53:55;;;;;;;72.22;25.90;;;;;;;;;;5066900;28;20058;-65
2022/01/12 06:56:21;;;;;;;98.20;30.70;;;;;;;;;;5068839;28;20036;-65
2022/01/12 06:58:48;;;;;;;81.07;27.75;;;;;;;;;;5069952;28;20482;-66
2022/01/12 07:01:14;;;;;;;83.60;27.60;;;;;;;;;;5053499;28;20465;-65
2022/01/12 07:03:40;;;;;;;105.38;31.50;;;;;;;;;;5072441;28;20076;-65
2022/01/12 07:06:06;;;;;;;96.53;29.05;;;;;;;;;;5075706;28;20036;-65
2022/01/12 07:08:34;;;;;;;87.35;28.17;;;;;;;;;;5071166;28;20036;-65
2022/01/12 07:11:00;;;;;;;85.72;28.83;;;;;;;;;;5073513;28;20115;-65
2022/01/12 07:13:27;;;;;;;95.00;28.38;;;;;;;;;;5073550;28;20543;-65
2022/01/12 07:15:52;;;;;;;82.32;26.17;;;;;;;;;;5071345;28;20048;-66
2022/01/12 07:18:21;;;;;;;90.70;28.00;;;;;;;;;;5072277;28;20093;-65
2022/01/12 07:20:47;;;;;;;83.00;27.80;;;;;;;;;;5071918;28;20409;-65
2022/01/12 07:23:13;;;;;;;80.38;27.83;;;;;;;;;;5072799;28;20044;-65
2022/01/12 07:25:39;;;;;;;87.20;28.27;;;;;;;;;;5072377;28;20036;-65
2022/01/12 07:28:05;;;;;;;87.25;27.30;;;;;;;;;;5072528;28;20041;-65
2022/01/12 07:30:31;;;;;;;83.90;26.65;;;;;;;;;;5054710;28;20072;-65
2022/01/12 07:32:57;;;;;;;83.85;27.13;;;;;;;;;;5070121;28;20056;-65
2022/01/12 07:35:23;;;;;;;84.40;26.67;;;;;;;;;;5072343;28;20040;-65
2022/01/12 07:37:49;;;;;;;80.90;26.60;;;;;;;;;;5072558;28;20047;-65
2022/01/12 07:40:15;;;;;;;72.55;26.73;;;;;;;;;;5056965;28;20047;-65
2022/01/12 07:42:42;;;;;;;82.78;27.00;;;;;;;;;;5077437;28;20092;-66
2022/01/12 07:45:08;;;;;;;78.57;26.30;;;;;;;;;;5087579;28;20062;-65
2022/01/12 07:47:34;;;;;;;78.10;25.88;;;;;;;;;;5076662;28;20033;-65
2022/01/12 07:50:00;;;;;;;73.57;25.52;;;;;;;;;;5071980;28;20517;-65
2022/01/12 07:52:28;;;;;;;75.45;26.65;;;;;;;;;;5071347;28;20040;-65
2022/01/12 07:54:54;;;;;;;84.68;25.13;;;;;;;;;;5072475;28;20066;-65
2022/01/12 07:57:20;;;;;;;70.45;25.05;;;;;;;;;;5070090;28;20089;-65
2022/01/12 07:59:46;;;;;;;77.10;25.05;;;;;;;;;;5071103;28;20047;-65
2022/01/12 08:02:12;;;;;;;77.97;24.13;;;;;;;;;;5067923;28;20433;-65
2022/01/12 08:04:39;;;;;;;75.72;24.73;;;;;;;;;;5076240;28;20499;-65
2022/01/12 08:07:06;;;;;;;89.38;26.80;;;;;;;;;;5073061;28;20131;-65
2022/01/12 08:09:32;;;;;;;71.28;22.58;;;;;;;;;;5071330;28;20040;-65
2022/01/12 08:11:58;;;;;;;71.65;24.92;;;;;;;;;;5082853;28;20039;-65
2022/01/12 08:14:24;;;;;;;68.20;23.40;;;;;;;;;;5074296;28;20498;-65
2022/01/12 08:16:50;;;;;;;74.78;24.20;;;;;;;;;;5070600;28;20047;-65
2022/01/12 08:19:18;;;;;;;65.53;23.40;;;;;;;;;;5070590;28;20071;-65
2022/01/12 08:21:44;;;;;;;61.97;23.73;;;;;;;;;;5076339;28;20040;-66
2022/01/12 08:24:12;;;;;;;69.30;23.95;;;;;;;;;;5078867;28;20028;-65
2022/01/12 08:26:38;;;;;;;58.92;22.38;;;;;;;;;;5070513;28;20089;-65
2022/01/12 08:29:04;;;;;;;64.10;22.85;;;;;;;;;;5071777;28;20033;-65
2022/01/12 08:31:30;;;;;;;60.83;22.08;;;;;;;;;;5070492;28;20039;-65
2022/01/12 08:33:56;;;;;;;63.33;21.92;;;;;;;;;;5071655;28;20036;-65
2022/01/12 08:36:22;;;;;;;59.33;22.23;;;;;;;;;;5070145;28;20059;-65
2022/01/12 08:38:48;;;;;;;53.05;20.58;;;;;;;;;;5072033;28;20075;-65
2022/01/12 08:41:14;;;;;;;61.35;22.30;;;;;;;;;;5071389;28;20043;-65
2022/01/12 08:43:40;;;;;;;54.47;20.85;;;;;;;;;;5070913;28;20036;-65
2022/01/12 08:46:06;;;;;;;57.38;19.90;;;;;;;;;;5068104;28;20033;-65
2022/01/12 08:48:32;;;;;;;59.25;21.63;;;;;;;;;;5070777;28;20166;-65
2022/01/12 08:50:58;;;;;;;68.15;22.67;;;;;;;;;;5069686;28;20051;-65
2022/01/12 08:53:24;;;;;;;69.25;23.95;;;;;;;;;;5066089;28;20029;-65
2022/01/12 08:55:50;;;;;;;67.70;22.35;;;;;;;;;;5065041;28;20044;-65
2022/01/12 08:58:16;;;;;;;65.38;22.15;;;;;;;;;;5067746;28;20067;-65
2022/01/12 09:00:42;;;;;;;73.75;24.13;;;;;;;;;;5067665;28;20091;-65
2022/01/12 09:03:08;;;;;;;64.05;22.70;;;;;;;;;;5066521;28;20037;-65
2022/01/12 09:05:34;;;;;;;69.10;22.75;;;;;;;;;;5072694;28;20028;-65
2022/01/12 09:08:00;;;;;;;76.60;23.83;;;;;;;;;;5056137;28;20033;-65
2022/01/12 09:10:26;;;;;;;67.53;23.95;;;;;;;;;;5069459;28;20040;-65
2022/01/12 09:12:53;;;;;;;98.40;25.40;;;;;;;;;;5066670;28;20044;-65
2022/01/12 09:15:24;;;;;;;82.60;23.08;;;;;;;;;;5071045;28;20094;-65
2022/01/12 09:17:50;;;;;;;79.95;23.65;;;;;;;;;;5070274;28;20123;-65
2022/01/12 09:20:16;;;;;;;80.80;22.67;;;;;;;;;;5070577;28;20123;-65
2022/01/12 09:22:42;;;;;;;80.85;22.80;;;;;;;;;;5069593;28;20036;-65
2022/01/12 09:25:09;;;;;;;70.70;23.27;;;;;;;;;;5070514;28;20029;-65
2022/01/12 09:27:36;;;;;;;74.22;22.92;;;;;;;;;;5069101;28;20102;-66
2022/01/12 09:30:02;;;;;;;69.93;21.83;;;;;;;;;;5070372;28;20489;-65
2022/01/12 09:32:28;;;;;;;72.13;22.95;;;;;;;;;;5073239;28;20470;-66
2022/01/12 09:34:53;;;;;;;70.45;21.55;;;;;;;;;;5073833;28;20123;-65
2022/01/12 09:37:21;;;;;;;73.40;21.83;;;;;;;;;;5071724;28;20494;-65
2022/01/12 09:39:47;;;;;;;77.10;22.20;;;;;;;;;;5067673;28;20044;-66
2022/01/12 09:42:13;;;;;;;70.50;20.58;;;;;;;;;;5070853;28;20045;-65
2022/01/12 09:44:44;;;;;;;68.32;21.85;;;;;;;;;;5072070;28;20363;-66
2022/01/12 09:47:10;;;;;;;63.05;19.83;;;;;;;;;;5073289;28;20054;-64
2022/01/12 09:49:36;;;;;;;69.07;20.98;;;;;;;;;;5073887;28;20042;-65
2022/01/12 09:52:02;;;;;;;63.47;20.70;;;;;;;;;;5073230;28;20049;-65
2022/01/12 09:54:28;;;;;;;67.85;21.50;;;;;;;;;;5073960;28;20040;-66
2022/01/12 09:56:54;;;;;;;82.68;22.00;;;;;;;;;;5072027;28;20498;-66
2022/01/12 09:59:22;;;;;;;73.43;21.38;;;;;;;;;;5073995;28;20047;-66
2022/01/12 10:01:51;;;;;;;75.57;20.30;;;;;;;;;;5074560;28;20033;-66
2022/01/12 10:04:17;;;;;;;72.60;20.90;;;;;;;;;;5073989;28;20406;-66
2022/01/12 10:06:48;;;;;;;81.07;20.27;;;;;;;;;;5071718;28;20040;-66
2022/01/12 10:09:14;;;;;;;76.32;19.98;;;;;;;;;;5073967;28;20037;-66
2022/01/12 10:11:49;;;;;;;68.63;20.00;;;;;;;;;;5068499;28;20085;-65
2022/01/12 10:14:15;;;;;;;61.42;17.48;;;;;;;;;;5073850;28;20174;-66
2022/01/12 10:16:49;;;;;;;70.45;18.63;;;;;;;;;;5073528;28;20123;-66
2022/01/12 10:19:24;;;;;;;61.05;18.20;;;;;;;;;;5073014;28;20041;-67
2022/01/12 10:21:50;;;;;;;64.40;16.90;;;;;;;;;;5073837;28;20394;-66
2022/01/12 10:24:18;;;;;;;62.45;17.55;;;;;;;;;;5073487;28;20517;-66
2022/01/12 10:26:45;;;;;;;56.50;15.93;;;;;;;;;;5073248;28;20044;-66
2022/01/12 10:29:15;;;;;;;57.03;15.32;;;;;;;;;;5073813;28;20066;-66
2022/01/12 10:31:44;;;;;;;54.28;14.88;;;;;;;;;;5073130;28;20043;-66
2022/01/12 10:34:10;;;;;;;47.72;13.98;;;;;;;;;;5058384;28;20040;-66
2022/01/12 10:36:36;;;;;;;44.80;13.43;;;;;;;;;;5070185;28;20113;-67
2022/01/12 10:39:09;;;;;;;52.67;13.60;;;;;;;;;;5072449;28;20124;-66
2022/01/12 10:41:35;;;;;;;46.80;12.70;;;;;;;;;;5067843;28;20095;-65
2022/01/12 10:44:02;;;;;;;41.50;12.90;;;;;;;;;;5070427;28;20486;-66
2022/01/12 10:46:29;;;;;;;36.25;11.68;;;;;;;;;;5070032;28;20592;-66
2022/01/12 10:48:56;;;;;;;39.30;11.38;;;;;;;;;;5076259;28;20036;-66
2022/01/12 10:51:23;;;;;;;35.15;11.32;;;;;;;;;;5076961;28;20041;-66
2022/01/12 10:53:50;;;;;;;42.45;11.25;;;;;;;;;;5069709;28;20466;-66
2022/01/12 10:56:18;;;;;;;34.40;9.18;;;;;;;;;;5057689;28;20044;-66
2022/01/12 10:58:45;;;;;;;34.90;9.15;;;;;;;;;;5073518;28;20490;-66
2022/01/12 11:01:12;;;;;;;41.30;10.13;;;;;;;;;;5071817;28;20044;-66
2022/01/12 11:03:38;;;;;;;34.75;9.23;;;;;;;;;;5072165;28;20037;-65
2022/01/12 11:06:05;;;;;;;33.10;7.68;;;;;;;;;;5071580;28;20048;-66
2022/01/12 11:08:31;;;;;;;35.78;8.75;;;;;;;;;;5072256;28;20064;-66
2022/01/12 11:10:58;;;;;;;35.88;8.27;;;;;;;;;;5070770;28;20032;-66
2022/01/12 11:13:25;;;;;;;33.58;8.50;;;;;;;;;;5070307;28;20382;-66
2022/01/12 11:15:52;;;;;;;41.45;9.07;;;;;;;;;;5081449;22;20044;-70
2022/01/12 11:18:21;;;;;;;31.55;8.00;;;;;;;;;;5054976;28;20087;-72
2022/01/12 11:20:48;;;;;;;35.60;8.25;;;;;;;;;;5051627;28;20037;-71
2022/01/12 11:23:15;;;;;;;32.65;7.60;;;;;;;;;;5066570;28;20052;-71
2022/01/12 11:25:45;;;;;;;40.70;8.48;;;;;;;;;;5063031;28;20047;-71
2022/01/12 11:28:19;;;;;;;31.20;7.63;;;;;;;;;;5051855;28;20064;-72
2022/01/12 11:30:51;;;;;;;27.02;8.10;;;;;;;;;;5051756;28;20120;-72
2022/01/12 11:33:19;;;;;;;37.30;8.93;;;;;;;;;;5052037;28;20495;-71
2022/01/12 11:35:46;;;;;;;31.60;8.10;;;;;;;;;;5051443;28;20033;-72
2022/01/12 11:38:22;;;;;;;35.45;9.10;;;;;;;;;;5050768;28;20090;-72
2022/01/12 11:40:48;;;;;;;41.45;9.70;;;;;;;;;;5049628;28;20041;-72
2022/01/12 11:43:18;;;;;;;38.38;10.07;;;;;;;;;;5051603;28;20198;-72
2022/01/12 11:45:44;;;;;;;37.40;10.05;;;;;;;;;;5050039;28;20083;-70
2022/01/12 11:48:10;;;;;;;35.95;9.50;;;;;;;;;;5051171;28;20110;-71
2022/01/12 11:50:36;;;;;;;37.35;9.95;;;;;;;;;;5056500;28;20051;-71
2022/01/12 11:53:02;;;;;;;38.10;10.35;;;;;;;;;;5054959;28;20037;-70
2022/01/12 11:55:34;;;;;;;41.00;11.27;;;;;;;;;;5051013;28;20036;-70
2022/01/12 11:58:03;;;;;;;28.58;9.13;;;;;;;;;;5050693;28;20041;-70
2022/01/12 12:00:31;;;;;;;31.60;9.93;;;;;;;;;;5052045;28;20048;-71
2022/01/12 12:02:58;;;;;;;33.25;9.00;;;;;;;;;;5051108;28;20045;-71
2022/01/12 12:05:28;;;;;;;34.88;9.25;;;;;;;;;;5060222;28;20058;-71
2022/01/12 12:07:55;;;;;;;33.30;9.70;;;;;;;;;;5064751;28;20091;-71
2022/01/12 12:10:21;;;;;;;35.33;10.63;;;;;;;;;;5050603;28;20099;-71
2022/01/12 12:12:47;;;;;;;38.92;10.43;;;;;;;;;;5051221;28;20510;-71
2022/01/12 12:15:14;;;;;;;41.10;10.32;;;;;;;;;;5051190;28;20103;-70
2022/01/12 12:17:40;;;;;;;41.78;10.27;;;;;;;;;;5051051;28;20082;-71
2022/01/12 12:20:08;;;;;;;36.22;9.77;;;;;;;;;;5051288;28;20443;-71
2022/01/12 12:22:37;;;;;;;37.17;9.00;;;;;;;;;;5050686;28;20141;-71
2022/01/12 12:25:29;;;;;;;41.75;10.30;;;;;;;;;;5049662;28;20049;-71
2022/01/12 12:27:56;;;;;;;36.67;10.32;;;;;;;;;;5045846;28;20043;-71
2022/01/12 12:30:23;;;;;;;38.67;10.80;;;;;;;;;;5050470;28;20040;-71
2022/01/12 12:32:53;;;;;;;41.08;10.98;;;;;;;;;;5051693;28;20487;-71
2022/01/12 12:35:20;;;;;;;33.70;9.70;;;;;;;;;;5046459;28;20036;-70
2022/01/12 12:37:51;;;;;;;35.97;9.77;;;;;;;;;;5047867;28;20041;-71
2022/01/12 12:40:19;;;;;;;35.92;10.20;;;;;;;;;;5052141;28;20526;-71
2022/01/12 12:42:50;;;;;;;33.78;10.45;;;;;;;;;;5049937;28;20124;-71
2022/01/12 12:45:16;;;;;;;33.05;9.98;;;;;;;;;;5051879;28;20040;-71
2022/01/12 12:47:43;;;;;;;41.80;10.32;;;;;;;;;;5051329;28;20033;-71
2022/01/12 12:50:14;;;;;;;34.00;10.00;;;;;;;;;;5051011;28;20487;-71
2022/01/12 12:52:40;;;;;;;37.08;9.43;;;;;;;;;;5051531;28;20052;-71
2022/01/12 12:55:10;;;;;;;39.15;10.98;;;;;;;;;;5048547;28;20041;-71
2022/01/12 12:57:45;;;;;;;32.58;10.00;;;;;;;;;;5050666;28;20072;-71
2022/01/12 13:00:16;;;;;;;40.38;10.55;;;;;;;;;;5047845;28;20033;-71
2022/01/12 13:02:43;;;;;;;28.25;9.15;;;;;;;;;;5037216;28;20052;-71
2022/01/12 13:05:11;;;;;;;35.58;9.63;;;;;;;;;;5056612;28;20083;-72
2022/01/12 13:07:38;;;;;;;30.98;9.90;;;;;;;;;;5054410;28;20041;-71
2022/01/12 13:10:11;;;;;;;32.63;9.45;;;;;;;;;;5055162;28;20044;-70
2022/01/12 13:12:41;;;;;;;28.58;9.02;;;;;;;;;;5053927;28;20041;-69
2022/01/12 13:15:10;;;;;;;43.13;9.73;;;;;;;;;;5055371;28;20430;-71
2022/01/12 13:17:39;;;;;;;29.90;9.00;;;;;;;;;;5049360;28;20060;-71
2022/01/12 13:22:38;;;;;;;40.03;9.57;;;;;;;;;;5042395;28;20049;-72
2022/01/12 13:25:09;;;;;;;36.53;10.05;;;;;;;;;;5054716;28;20487;-71
2022/01/12 13:27:35;;;;;;;37.13;10.20;;;;;;;;;;5055694;28;20095;-71
2022/01/12 13:30:02;;;;;;;31.45;9.48;;;;;;;;;;5055393;28;20044;-71
2022/01/12 13:32:27;;;;;;;35.25;11.02;;;;;;;;;;5050855;28;20057;-70
2022/01/12 13:35:07;;;;;;;34.38;10.43;;;;;;;;;;5052840;28;20040;-71
2022/01/12 13:37:33;;;;;;;33.15;9.85;;;;;;;;;;5057882;28;20550;-71
2022/01/12 13:40:07;;;;;;;36.63;11.15;;;;;;;;;;5060895;28;20120;-70
2022/01/12 13:42:45;;;;;;;33.08;10.88;;;;;;;;;;5056022;28;20399;-71
2022/01/12 13:45:15;;;;;;;42.60;11.15;;;;;;;;;;5058216;28;20094;-70
2022/01/12 13:47:42;;;;;;;36.35;10.20;;;;;;;;;;5053983;28;20040;-71
2022/01/12 13:50:09;;;;;;;41.67;10.00;;;;;;;;;;5053968;28;20446;-70
2022/01/12 13:52:36;;;;;;;36.72;9.57;;;;;;;;;;5053064;28;20414;-70
2022/01/12 13:55:10;;;;;;;33.22;9.55;;;;;;;;;;5052392;28;20032;-70
2022/01/12 13:57:36;;;;;;;25.70;8.52;;;;;;;;;;5049582;28;20080;-71
2022/01/12 14:00:04;;;;;;;27.05;9.05;;;;;;;;;;5053604;28;20063;-71
2022/01/12 14:02:30;;;;;;;32.22;8.85;;;;;;;;;;5051793;28;20043;-71
2022/01/12 14:05:07;;;;;;;28.00;9.23;;;;;;;;;;5052782;28;20410;-71
2022/01/12 14:10:30;;;;;;;22.40;7.90;;;;;;;;;;5056003;28;20124;-70
2022/01/12 14:12:57;;;;;;;29.48;8.45;;;;;;;;;;5054877;28;20128;-70
2022/01/12 14:15:27;;;;;;;26.63;8.18;;;;;;;;;;5053561;28;20049;-71
2022/01/12 14:17:54;;;;;;;22.00;8.32;;;;;;;;;;5049224;28;20112;-71
2022/01/12 14:20:31;;;;;;;23.25;8.68;;;;;;;;;;5054490;28;20418;-71
2022/01/12 14:23:01;;;;;;;28.83;9.23;;;;;;;;;;5048108;28;20080;-71
2022/01/12 14:25:38;;;;;;;26.13;8.65;;;;;;;;;;5041417;28;20127;-71
2022/01/12 14:28:04;;;;;;;27.52;9.63;;;;;;;;;;5053121;28;20036;-71
2022/01/12 14:30:30;;;;;;;27.55;9.30;;;;;;;;;;5073844;28;20474;-71
2022/01/12 14:32:56;;;;;;;26.98;10.05;;;;;;;;;;5071829;28;20050;-71
2022/01/12 14:35:23;;;;;;;23.05;9.63;;;;;;;;;;5053256;28;20045;-71
2022/01/12 14:37:49;;;;;;;27.75;9.20;;;;;;;;;;5053120;28;20076;-71
2022/01/12 14:40:16;;;;;;;27.02;10.13;;;;;;;;;;5055106;28;20043;-71
2022/01/12 14:42:42;;;;;;;28.67;9.23;;;;;;;;;;5053735;28;20104;-71
2022/01/12 14:45:09;;;;;;;24.52;9.80;;;;;;;;;;5053549;28;20418;-71
2022/01/12 14:47:35;;;;;;;25.65;10.13;;;;;;;;;;5047093;28;20102;-71
2022/01/12 14:50:02;;;;;;;25.90;10.55;;;;;;;;;;5052577;28;20112;-71
2022/01/12 14:52:28;;;;;;;27.60;9.70;;;;;;;;;;5051781;28;20502;-71
2022/01/12 14:54:54;;;;;;;27.85;10.45;;;;;;;;;;5051980;28;20047;-71
2022/01/12 14:57:20;;;;;;;79.53;50.70;;;;;;;;;;5050951;28;20044;-70
2022/01/12 14:59:46;;;;;;;31.63;12.05;;;;;;;;;;5051200;28;20048;-71
2022/01/12 15:02:12;;;;;;;40.53;19.60;;;;;;;;;;5052720;28;20032;-71
2022/01/12 15:04:37;;;;;;;32.53;13.02;;;;;;;;;;5052645;28;20486;-71
2022/01/12 15:07:04;;;;;;;35.65;17.00;;;;;;;;;;5053260;28;20112;-71
2022/01/12 15:09:30;;;;;;;33.15;17.13;;;;;;;;;;5050729;28;20506;-70
2022/01/12 15:11:56;;;;;;;30.23;10.23;;;;;;;;;;5058726;28;20121;-71
2022/01/12 15:14:29;;;;;;;36.72;18.67;;;;;;;;;;5056682;28;20072;-71
2022/01/12 15:16:55;;;;;;;38.15;14.90;;;;;;;;;;5048673;28;20083;-71
2022/01/12 15:19:21;;;;;;;34.80;16.05;;;;;;;;;;5050982;28;20080;-71
2022/01/12 15:21:47;;;;;;;33.38;11.07;;;;;;;;;;5054861;28;20455;-70
2022/01/12 15:24:13;;;;;;;42.60;16.40;;;;;;;;;;5056948;28;20072;-71
2022/01/12 15:26:39;;;;;;;31.15;11.43;;;;;;;;;;5063527;28;20064;-71
2022/01/12 15:29:05;;;;;;;27.25;8.75;;;;;;;;;;5051176;28;20498;-71
2022/01/12 15:31:31;;;;;;;32.72;16.75;;;;;;;;;;5048467;28;20533;-71
2022/01/12 15:33:57;;;;;;;27.65;10.25;;;;;;;;;;5060918;28;20115;-71
2022/01/12 15:36:23;;;;;;;31.08;12.93;;;;;;;;;;5051718;28;20414;-71
2022/01/12 15:38:49;;;;;;;33.40;11.45;;;;;;;;;;5051424;28;20041;-71
2022/01/12 15:41:15;;;;;;;33.70;11.40;;;;;;;;;;5048459;28;20083;-71
2022/01/12 15:43:41;;;;;;;39.15;11.45;;;;;;;;;;5052702;28;20080;-71
2022/01/12 15:46:07;;;;;;;34.95;12.57;;;;;;;;;;5051406;28;20040;-71
2022/01/12 15:48:39;;;;;;;43.15;19.35;;;;;;;;;;5052661;28;20041;-71
2022/01/12 15:51:05;;;;;;;32.83;11.60;;;;;;;;;;5051618;28;20108;-72